sensor_id;sensor_type;location;lat;lon;timestamp;P1;durP1;ratioP1;P2;durP2;ratioP2
82711;SDS011;72433;41.992;21.438;2024-03-23T00:55:57;24.55;;;15.00;;
82711;SDS011;72433;41.992;21.438;2024-03-23T00:58:23;23.80;;;14.50;;
82711;SDS011;72433;41.992;21.438;2024-03-23T01:00:49;26.70;;;14.38;;
82711;SDS011;72433;41.992;21.438;2024-03-23T01:03:15;23.38;;;13.40;;
82711;SDS011;72433;41.992;21.438;2024-03-23T01:05:41;27.50;;;15.93;;
82711;SDS011;72433;41.992;21.438;2024-03-23T01:08:07;25.88;;;14.20;;
82711;SDS011;72433;41.992;21.438;2024-03-23T01:10:33;23.20;;;13.93;;
82711;SDS011;72433;41.992;21.438;2024-03-23T01:12:59;26.08;;;14.20;;
82711;SDS011;72433;41.992;21.438;2024-03-23T01:15:25;24.20;;;14.85;;
82711;SDS011;72433;41.992;21.438;2024-03-23T01:17:51;26.63;;;16.15;;
82711;SDS011;72433;41.992;21.438;2024-03-23T01:20:17;23.40;;;14.00;;
82711;SDS011;72433;41.992;21.438;2024-03-23T01:22:43;26.88;;;15.57;;
82711;SDS011;72433;41.992;21.438;2024-03-23T01:25:10;26.10;;;14.55;;
82711;SDS011;72433;41.992;21.438;2024-03-23T01:27:36;26.73;;;15.18;;
82711;SDS011;72433;41.992;21.438;2024-03-23T01:30:02;24.63;;;14.10;;
82711;SDS011;72433;41.992;21.438;2024-03-23T01:32:28;30.10;;;14.68;;
82711;SDS011;72433;41.992;21.438;2024-03-23T01:34:54;28.50;;;16.33;;
82711;SDS011;72433;41.992;21.438;2024-03-23T01:37:20;24.63;;;14.32;;
82711;SDS011;72433;41.992;21.438;2024-03-23T01:39:46;26.35;;;14.93;;
82711;SDS011;72433;41.992;21.438;2024-03-23T01:42:12;24.88;;;14.73;;
82711;SDS011;72433;41.992;21.438;2024-03-23T01:44:38;27.73;;;15.38;;
82711;SDS011;72433;41.992;21.438;2024-03-23T01:47:06;25.27;;;15.32;;
82711;SDS011;72433;41.992;21.438;2024-03-23T01:49:32;25.42;;;14.35;;
82711;SDS011;72433;41.992;21.438;2024-03-23T01:51:59;19.52;;;12.88;;
82711;SDS011;72433;41.992;21.438;2024-03-23T01:54:25;29.17;;;14.88;;
82711;SDS011;72433;41.992;21.438;2024-03-23T01:56:51;23.50;;;14.35;;
82711;SDS011;72433;41.992;21.438;2024-03-23T01:59:17;22.27;;;13.85;;
82711;SDS011;72433;41.992;21.438;2024-03-23T02:01:43;21.15;;;13.85;;
82711;SDS011;72433;41.992;21.438;2024-03-23T02:04:10;23.67;;;14.55;;
82711;SDS011;72433;41.992;21.438;2024-03-23T02:06:36;24.83;;;14.45;;
82711;SDS011;72433;41.992;21.438;2024-03-23T02:09:02;22.73;;;13.38;;
82711;SDS011;72433;41.992;21.438;2024-03-23T02:11:28;25.20;;;14.55;;
82711;SDS011;72433;41.992;21.438;2024-03-23T02:13:55;28.30;;;13.30;;
82711;SDS011;72433;41.992;21.438;2024-03-23T02:16:21;26.48;;;14.82;;
82711;SDS011;72433;41.992;21.438;2024-03-23T02:18:47;23.52;;;14.68;;
82711;SDS011;72433;41.992;21.438;2024-03-23T02:21:13;24.35;;;14.55;;
82711;SDS011;72433;41.992;21.438;2024-03-23T02:23:39;21.70;;;13.32;;
82711;SDS011;72433;41.992;21.438;2024-03-23T02:26:05;22.60;;;13.55;;
82711;SDS011;72433;41.992;21.438;2024-03-23T02:28:32;23.05;;;13.90;;
82711;SDS011;72433;41.992;21.438;2024-03-23T02:30:58;23.88;;;12.60;;
82711;SDS011;72433;41.992;21.438;2024-03-23T02:33:26;24.00;;;12.98;;
82711;SDS011;72433;41.992;21.438;2024-03-23T02:35:55;20.40;;;11.98;;
82711;SDS011;72433;41.992;21.438;2024-03-23T02:38:22;21.77;;;13.50;;
82711;SDS011;72433;41.992;21.438;2024-03-23T02:40:48;21.60;;;12.32;;
82711;SDS011;72433;41.992;21.438;2024-03-23T02:43:15;23.63;;;12.00;;
82711;SDS011;72433;41.992;21.438;2024-03-23T02:45:41;24.00;;;13.27;;
82711;SDS011;72433;41.992;21.438;2024-03-23T02:48:07;17.58;;;11.00;;
82711;SDS011;72433;41.992;21.438;2024-03-23T02:50:33;18.88;;;11.43;;
82711;SDS011;72433;41.992;21.438;2024-03-23T02:52:59;20.67;;;12.00;;
82711;SDS011;72433;41.992;21.438;2024-03-23T02:55:25;17.92;;;11.13;;
82711;SDS011;72433;41.992;21.438;2024-03-23T02:57:51;17.30;;;11.02;;
82711;SDS011;72433;41.992;21.438;2024-03-23T03:00:17;19.83;;;12.07;;
82711;SDS011;72433;41.992;21.438;2024-03-23T03:02:46;17.98;;;11.45;;
82711;SDS011;72433;41.992;21.438;2024-03-23T03:05:13;19.88;;;11.52;;
82711;SDS011;72433;41.992;21.438;2024-03-23T03:07:39;17.58;;;11.38;;
82711;SDS011;72433;41.992;21.438;2024-03-23T03:10:06;20.50;;;11.10;;
82711;SDS011;72433;41.992;21.438;2024-03-23T03:12:35;19.02;;;11.85;;
82711;SDS011;72433;41.992;21.438;2024-03-23T03:15:01;16.05;;;9.60;;
82711;SDS011;72433;41.992;21.438;2024-03-23T03:17:28;18.40;;;11.18;;
82711;SDS011;72433;41.992;21.438;2024-03-23T03:19:54;19.73;;;9.35;;
82711;SDS011;72433;41.992;21.438;2024-03-23T03:22:21;19.75;;;10.52;;
82711;SDS011;72433;41.992;21.438;2024-03-23T03:24:47;18.80;;;11.82;;
82711;SDS011;72433;41.992;21.438;2024-03-23T03:27:13;14.65;;;9.45;;
82711;SDS011;72433;41.992;21.438;2024-03-23T03:29:39;17.33;;;10.43;;
82711;SDS011;72433;41.992;21.438;2024-03-23T03:32:06;16.98;;;9.55;;
82711;SDS011;72433;41.992;21.438;2024-03-23T03:34:32;15.35;;;9.80;;
82711;SDS011;72433;41.992;21.438;2024-03-23T03:36:58;17.23;;;9.63;;
82711;SDS011;72433;41.992;21.438;2024-03-23T03:39:24;18.00;;;9.90;;
82711;SDS011;72433;41.992;21.438;2024-03-23T03:41:51;14.77;;;9.50;;
82711;SDS011;72433;41.992;21.438;2024-03-23T03:44:17;14.23;;;9.05;;
82711;SDS011;72433;41.992;21.438;2024-03-23T03:46:43;14.00;;;9.90;;
82711;SDS011;72433;41.992;21.438;2024-03-23T03:49:09;16.30;;;9.80;;
82711;SDS011;72433;41.992;21.438;2024-03-23T03:51:35;16.48;;;10.15;;
82711;SDS011;72433;41.992;21.438;2024-03-23T03:54:01;18.05;;;10.23;;
82711;SDS011;72433;41.992;21.438;2024-03-23T03:56:27;17.25;;;9.90;;
82711;SDS011;72433;41.992;21.438;2024-03-23T03:58:53;16.80;;;9.68;;
82711;SDS011;72433;41.992;21.438;2024-03-23T04:01:19;14.73;;;8.85;;
82711;SDS011;72433;41.992;21.438;2024-03-23T04:03:45;15.32;;;9.23;;
82711;SDS011;72433;41.992;21.438;2024-03-23T04:06:12;14.98;;;9.75;;
82711;SDS011;72433;41.992;21.438;2024-03-23T04:08:38;14.98;;;9.40;;
82711;SDS011;72433;41.992;21.438;2024-03-23T04:11:04;15.77;;;9.35;;
82711;SDS011;72433;41.992;21.438;2024-03-23T04:13:30;13.90;;;9.15;;
82711;SDS011;72433;41.992;21.438;2024-03-23T04:15:56;14.93;;;9.18;;
82711;SDS011;72433;41.992;21.438;2024-03-23T04:18:22;15.50;;;9.38;;
82711;SDS011;72433;41.992;21.438;2024-03-23T04:20:49;13.75;;;9.32;;
82711;SDS011;72433;41.992;21.438;2024-03-23T04:23:15;20.00;;;9.18;;
82711;SDS011;72433;41.992;21.438;2024-03-23T04:25:41;14.70;;;9.07;;
82711;SDS011;72433;41.992;21.438;2024-03-23T04:28:07;14.52;;;8.57;;
82711;SDS011;72433;41.992;21.438;2024-03-23T04:30:33;15.27;;;9.00;;
82711;SDS011;72433;41.992;21.438;2024-03-23T04:33:00;15.75;;;8.60;;
82711;SDS011;72433;41.992;21.438;2024-03-23T04:35:26;15.73;;;9.25;;
82711;SDS011;72433;41.992;21.438;2024-03-23T04:37:55;15.27;;;8.85;;
82711;SDS011;72433;41.992;21.438;2024-03-23T04:40:23;17.25;;;9.32;;
82711;SDS011;72433;41.992;21.438;2024-03-23T04:42:49;14.38;;;8.68;;
82711;SDS011;72433;41.992;21.438;2024-03-23T04:45:16;16.85;;;9.43;;
82711;SDS011;72433;41.992;21.438;2024-03-23T04:47:42;17.33;;;9.70;;
82711;SDS011;72433;41.992;21.438;2024-03-23T04:50:08;20.40;;;11.23;;
82711;SDS011;72433;41.992;21.438;2024-03-23T04:52:35;17.48;;;11.45;;
82711;SDS011;72433;41.992;21.438;2024-03-23T04:55:02;20.90;;;11.52;;
82711;SDS011;72433;41.992;21.438;2024-03-23T04:57:28;19.08;;;10.95;;
82711;SDS011;72433;41.992;21.438;2024-03-23T04:59:54;16.88;;;10.98;;
82711;SDS011;72433;41.992;21.438;2024-03-23T05:02:20;16.10;;;11.07;;
82711;SDS011;72433;41.992;21.438;2024-03-23T05:04:46;18.50;;;11.48;;
82711;SDS011;72433;41.992;21.438;2024-03-23T05:07:12;18.38;;;11.90;;
82711;SDS011;72433;41.992;21.438;2024-03-23T05:09:38;21.13;;;11.93;;
82711;SDS011;72433;41.992;21.438;2024-03-23T05:12:05;17.27;;;10.95;;
82711;SDS011;72433;41.992;21.438;2024-03-23T05:14:31;18.52;;;11.02;;
82711;SDS011;72433;41.992;21.438;2024-03-23T05:16:57;23.67;;;10.90;;
82711;SDS011;72433;41.992;21.438;2024-03-23T05:19:23;20.00;;;11.68;;
82711;SDS011;72433;41.992;21.438;2024-03-23T05:21:50;20.42;;;11.20;;
82711;SDS011;72433;41.992;21.438;2024-03-23T05:24:16;22.27;;;11.93;;
82711;SDS011;72433;41.992;21.438;2024-03-23T05:26:42;18.75;;;12.18;;
82711;SDS011;72433;41.992;21.438;2024-03-23T05:29:08;19.42;;;11.32;;
82711;SDS011;72433;41.992;21.438;2024-03-23T05:31:36;23.63;;;12.38;;
82711;SDS011;72433;41.992;21.438;2024-03-23T05:34:02;25.30;;;14.25;;
82711;SDS011;72433;41.992;21.438;2024-03-23T05:36:28;16.88;;;12.05;;
82711;SDS011;72433;41.992;21.438;2024-03-23T05:38:55;22.38;;;13.93;;
82711;SDS011;72433;41.992;21.438;2024-03-23T05:41:21;25.38;;;15.13;;
82711;SDS011;72433;41.992;21.438;2024-03-23T05:43:49;31.35;;;14.27;;
82711;SDS011;72433;41.992;21.438;2024-03-23T05:46:15;24.42;;;14.23;;
82711;SDS011;72433;41.992;21.438;2024-03-23T05:48:41;21.02;;;13.93;;
82711;SDS011;72433;41.992;21.438;2024-03-23T05:51:07;24.13;;;14.52;;
82711;SDS011;72433;41.992;21.438;2024-03-23T05:53:33;26.38;;;14.57;;
82711;SDS011;72433;41.992;21.438;2024-03-23T05:56:00;23.65;;;13.70;;
82711;SDS011;72433;41.992;21.438;2024-03-23T05:58:29;23.77;;;13.48;;
82711;SDS011;72433;41.992;21.438;2024-03-23T06:01:01;28.05;;;16.60;;
82711;SDS011;72433;41.992;21.438;2024-03-23T06:03:28;29.10;;;14.55;;
82711;SDS011;72433;41.992;21.438;2024-03-23T06:05:54;23.65;;;14.27;;
82711;SDS011;72433;41.992;21.438;2024-03-23T06:08:21;22.98;;;14.80;;
82711;SDS011;72433;41.992;21.438;2024-03-23T06:10:47;28.63;;;14.25;;
82711;SDS011;72433;41.992;21.438;2024-03-23T06:13:13;24.35;;;14.30;;
82711;SDS011;72433;41.992;21.438;2024-03-23T06:15:40;29.13;;;15.93;;
82711;SDS011;72433;41.992;21.438;2024-03-23T06:18:06;21.30;;;13.75;;
82711;SDS011;72433;41.992;21.438;2024-03-23T06:20:35;25.38;;;14.27;;
82711;SDS011;72433;41.992;21.438;2024-03-23T06:23:01;27.58;;;15.57;;
82711;SDS011;72433;41.992;21.438;2024-03-23T06:25:28;24.67;;;14.38;;
82711;SDS011;72433;41.992;21.438;2024-03-23T06:27:54;23.90;;;14.57;;
82711;SDS011;72433;41.992;21.438;2024-03-23T06:30:20;27.65;;;15.23;;
82711;SDS011;72433;41.992;21.438;2024-03-23T06:32:47;28.90;;;16.35;;
82711;SDS011;72433;41.992;21.438;2024-03-23T06:35:13;24.35;;;14.32;;
82711;SDS011;72433;41.992;21.438;2024-03-23T06:37:39;24.90;;;15.90;;
82711;SDS011;72433;41.992;21.438;2024-03-23T06:40:06;27.58;;;15.93;;
82711;SDS011;72433;41.992;21.438;2024-03-23T06:42:34;26.58;;;15.68;;
82711;SDS011;72433;41.992;21.438;2024-03-23T06:45:01;25.20;;;15.27;;
82711;SDS011;72433;41.992;21.438;2024-03-23T06:47:27;20.17;;;12.75;;
82711;SDS011;72433;41.992;21.438;2024-03-23T06:49:53;21.02;;;13.82;;
82711;SDS011;72433;41.992;21.438;2024-03-23T06:52:19;24.38;;;14.30;;
82711;SDS011;72433;41.992;21.438;2024-03-23T06:54:45;20.17;;;14.27;;
82711;SDS011;72433;41.992;21.438;2024-03-23T06:57:11;20.85;;;13.43;;
82711;SDS011;72433;41.992;21.438;2024-03-23T06:59:38;20.77;;;12.05;;
82711;SDS011;72433;41.992;21.438;2024-03-23T07:02:04;19.15;;;11.48;;
82711;SDS011;72433;41.992;21.438;2024-03-23T07:04:33;16.13;;;10.13;;
82711;SDS011;72433;41.992;21.438;2024-03-23T07:06:59;14.60;;;9.82;;
82711;SDS011;72433;41.992;21.438;2024-03-23T07:09:27;17.83;;;11.73;;
82711;SDS011;72433;41.992;21.438;2024-03-23T07:11:56;21.52;;;11.55;;
82711;SDS011;72433;41.992;21.438;2024-03-23T07:14:23;19.65;;;12.50;;
82711;SDS011;72433;41.992;21.438;2024-03-23T07:16:49;19.35;;;11.77;;
82711;SDS011;72433;41.992;21.438;2024-03-23T07:19:16;17.00;;;10.65;;
82711;SDS011;72433;41.992;21.438;2024-03-23T07:21:42;19.20;;;10.77;;
82711;SDS011;72433;41.992;21.438;2024-03-23T07:24:09;16.02;;;9.85;;
82711;SDS011;72433;41.992;21.438;2024-03-23T07:26:35;17.08;;;10.05;;
82711;SDS011;72433;41.992;21.438;2024-03-23T07:29:03;14.90;;;9.15;;
82711;SDS011;72433;41.992;21.438;2024-03-23T07:31:29;18.33;;;10.10;;
82711;SDS011;72433;41.992;21.438;2024-03-23T07:33:55;18.67;;;9.95;;
82711;SDS011;72433;41.992;21.438;2024-03-23T07:36:21;18.45;;;10.60;;
82711;SDS011;72433;41.992;21.438;2024-03-23T07:38:47;19.17;;;10.73;;
82711;SDS011;72433;41.992;21.438;2024-03-23T07:41:17;18.83;;;11.25;;
82711;SDS011;72433;41.992;21.438;2024-03-23T07:43:44;16.50;;;10.70;;
82711;SDS011;72433;41.992;21.438;2024-03-23T07:46:10;21.20;;;13.02;;
82711;SDS011;72433;41.992;21.438;2024-03-23T07:48:37;25.52;;;14.10;;
82711;SDS011;72433;41.992;21.438;2024-03-23T07:53:29;24.77;;;14.02;;
82711;SDS011;72433;41.992;21.438;2024-03-23T07:55:59;22.05;;;13.68;;
82711;SDS011;72433;41.992;21.438;2024-03-23T07:58:26;24.02;;;13.65;;
82711;SDS011;72433;41.992;21.438;2024-03-23T08:00:52;23.27;;;15.00;;
82711;SDS011;72433;41.992;21.438;2024-03-23T08:03:18;24.10;;;14.10;;
82711;SDS011;72433;41.992;21.438;2024-03-23T08:05:45;20.73;;;12.55;;
82711;SDS011;72433;41.992;21.438;2024-03-23T08:08:11;20.77;;;12.10;;
82711;SDS011;72433;41.992;21.438;2024-03-23T08:10:37;22.85;;;13.07;;
82711;SDS011;72433;41.992;21.438;2024-03-23T08:13:12;23.67;;;14.07;;
82711;SDS011;72433;41.992;21.438;2024-03-23T08:15:38;22.73;;;13.68;;
82711;SDS011;72433;41.992;21.438;2024-03-23T08:18:04;21.02;;;12.70;;
82711;SDS011;72433;41.992;21.438;2024-03-23T08:20:30;18.77;;;12.80;;
82711;SDS011;72433;41.992;21.438;2024-03-23T08:22:57;29.20;;;13.73;;
82711;SDS011;72433;41.992;21.438;2024-03-23T08:25:23;23.05;;;11.50;;
82711;SDS011;72433;41.992;21.438;2024-03-23T08:27:49;20.55;;;12.73;;
82711;SDS011;72433;41.992;21.438;2024-03-23T08:30:15;22.38;;;13.63;;
82711;SDS011;72433;41.992;21.438;2024-03-23T08:32:41;21.02;;;12.98;;
82711;SDS011;72433;41.992;21.438;2024-03-23T08:35:07;23.75;;;12.68;;
82711;SDS011;72433;41.992;21.438;2024-03-23T08:37:34;18.42;;;12.32;;
82711;SDS011;72433;41.992;21.438;2024-03-23T08:40:00;22.02;;;12.88;;
82711;SDS011;72433;41.992;21.438;2024-03-23T08:42:27;19.67;;;12.40;;
82711;SDS011;72433;41.992;21.438;2024-03-23T08:44:53;21.70;;;13.23;;
82711;SDS011;72433;41.992;21.438;2024-03-23T08:47:19;21.95;;;12.70;;
82711;SDS011;72433;41.992;21.438;2024-03-23T08:49:45;19.35;;;13.23;;
82711;SDS011;72433;41.992;21.438;2024-03-23T08:52:11;22.15;;;12.45;;
82711;SDS011;72433;41.992;21.438;2024-03-23T08:54:37;21.00;;;12.43;;
82711;SDS011;72433;41.992;21.438;2024-03-23T08:57:03;19.90;;;12.07;;
82711;SDS011;72433;41.992;21.438;2024-03-23T08:59:29;20.90;;;11.20;;
82711;SDS011;72433;41.992;21.438;2024-03-23T09:01:55;16.60;;;11.68;;
82711;SDS011;72433;41.992;21.438;2024-03-23T09:04:22;21.35;;;12.02;;
82711;SDS011;72433;41.992;21.438;2024-03-23T09:06:48;16.67;;;12.10;;
82711;SDS011;72433;41.992;21.438;2024-03-23T09:09:15;19.52;;;11.43;;
82711;SDS011;72433;41.992;21.438;2024-03-23T09:11:41;18.83;;;11.93;;
82711;SDS011;72433;41.992;21.438;2024-03-23T09:14:07;19.13;;;11.95;;
82711;SDS011;72433;41.992;21.438;2024-03-23T09:16:34;17.88;;;10.45;;
82711;SDS011;72433;41.992;21.438;2024-03-23T09:19:00;18.75;;;10.07;;
82711;SDS011;72433;41.992;21.438;2024-03-23T09:21:26;15.95;;;10.73;;
82711;SDS011;72433;41.992;21.438;2024-03-23T09:23:53;17.10;;;10.65;;
82711;SDS011;72433;41.992;21.438;2024-03-23T09:26:19;15.32;;;10.23;;
82711;SDS011;72433;41.992;21.438;2024-03-23T09:28:48;15.05;;;9.98;;
82711;SDS011;72433;41.992;21.438;2024-03-23T09:31:14;17.20;;;10.25;;
82711;SDS011;72433;41.992;21.438;2024-03-23T09:33:40;16.27;;;10.10;;
82711;SDS011;72433;41.992;21.438;2024-03-23T09:36:07;21.02;;;11.15;;
82711;SDS011;72433;41.992;21.438;2024-03-23T09:38:33;16.58;;;10.40;;
82711;SDS011;72433;41.992;21.438;2024-03-23T09:41:00;16.02;;;9.88;;
82711;SDS011;72433;41.992;21.438;2024-03-23T09:43:26;18.10;;;9.93;;
82711;SDS011;72433;41.992;21.438;2024-03-23T09:45:52;18.85;;;10.38;;
82711;SDS011;72433;41.992;21.438;2024-03-23T09:48:18;14.15;;;9.23;;
82711;SDS011;72433;41.992;21.438;2024-03-23T09:50:45;12.38;;;8.55;;
82711;SDS011;72433;41.992;21.438;2024-03-23T09:53:12;12.13;;;8.82;;
82711;SDS011;72433;41.992;21.438;2024-03-23T09:55:38;18.80;;;9.50;;
82711;SDS011;72433;41.992;21.438;2024-03-23T09:58:05;14.98;;;8.88;;
82711;SDS011;72433;41.992;21.438;2024-03-23T10:00:32;14.80;;;9.85;;
82711;SDS011;72433;41.992;21.438;2024-03-23T10:02:59;15.43;;;10.35;;
82711;SDS011;72433;41.992;21.438;2024-03-23T10:05:27;15.32;;;10.25;;
82711;SDS011;72433;41.992;21.438;2024-03-23T10:07:54;13.25;;;9.52;;
82711;SDS011;72433;41.992;21.438;2024-03-23T10:10:20;17.50;;;10.30;;
82711;SDS011;72433;41.992;21.438;2024-03-23T10:12:47;17.00;;;10.07;;
82711;SDS011;72433;41.992;21.438;2024-03-23T10:15:20;12.02;;;9.43;;
82711;SDS011;72433;41.992;21.438;2024-03-23T10:17:46;14.45;;;9.73;;
82711;SDS011;72433;41.992;21.438;2024-03-23T10:20:13;13.25;;;8.73;;
82711;SDS011;72433;41.992;21.438;2024-03-23T10:22:39;12.40;;;7.78;;
82711;SDS011;72433;41.992;21.438;2024-03-23T10:25:09;14.75;;;7.38;;
82711;SDS011;72433;41.992;21.438;2024-03-23T10:27:35;14.68;;;7.63;;
82711;SDS011;72433;41.992;21.438;2024-03-23T10:30:08;9.88;;;6.65;;
82711;SDS011;72433;41.992;21.438;2024-03-23T10:32:34;10.38;;;6.70;;
82711;SDS011;72433;41.992;21.438;2024-03-23T10:35:16;12.07;;;7.13;;
82711;SDS011;72433;41.992;21.438;2024-03-23T10:37:49;12.98;;;7.53;;
82711;SDS011;72433;41.992;21.438;2024-03-23T10:40:18;12.23;;;7.15;;
82711;SDS011;72433;41.992;21.438;2024-03-23T10:42:44;12.75;;;7.30;;
82711;SDS011;72433;41.992;21.438;2024-03-23T10:45:13;10.05;;;7.65;;
82711;SDS011;72433;41.992;21.438;2024-03-23T10:47:39;11.88;;;7.57;;
82711;SDS011;72433;41.992;21.438;2024-03-23T10:50:05;11.82;;;7.30;;
82711;SDS011;72433;41.992;21.438;2024-03-23T10:52:32;11.65;;;6.72;;
82711;SDS011;72433;41.992;21.438;2024-03-23T10:54:59;10.25;;;7.25;;
82711;SDS011;72433;41.992;21.438;2024-03-23T10:57:27;12.77;;;6.90;;
82711;SDS011;72433;41.992;21.438;2024-03-23T10:59:56;19.38;;;7.38;;
82711;SDS011;72433;41.992;21.438;2024-03-23T11:02:22;15.57;;;7.35;;
82711;SDS011;72433;41.992;21.438;2024-03-23T11:04:48;10.85;;;7.93;;
82711;SDS011;72433;41.992;21.438;2024-03-23T11:09:53;11.95;;;7.20;;
82711;SDS011;72433;41.992;21.438;2024-03-23T11:14:46;10.60;;;6.13;;
82711;SDS011;72433;41.992;21.438;2024-03-23T11:17:17;10.50;;;5.63;;
82711;SDS011;72433;41.992;21.438;2024-03-23T11:19:44;10.27;;;6.82;;
82711;SDS011;72433;41.992;21.438;2024-03-23T11:22:10;15.35;;;7.18;;
82711;SDS011;72433;41.992;21.438;2024-03-23T11:24:36;10.68;;;6.38;;
82711;SDS011;72433;41.992;21.438;2024-03-23T11:27:15;11.77;;;7.40;;
82711;SDS011;72433;41.992;21.438;2024-03-23T11:29:41;8.80;;;7.13;;
82711;SDS011;72433;41.992;21.438;2024-03-23T11:32:07;9.98;;;6.35;;
82711;SDS011;72433;41.992;21.438;2024-03-23T11:34:38;9.30;;;5.95;;
82711;SDS011;72433;41.992;21.438;2024-03-23T11:37:04;8.40;;;5.75;;
82711;SDS011;72433;41.992;21.438;2024-03-23T11:39:31;8.93;;;6.22;;
82711;SDS011;72433;41.992;21.438;2024-03-23T11:41:57;10.80;;;5.78;;
82711;SDS011;72433;41.992;21.438;2024-03-23T11:44:25;9.00;;;5.65;;
82711;SDS011;72433;41.992;21.438;2024-03-23T11:46:51;8.23;;;5.47;;
82711;SDS011;72433;41.992;21.438;2024-03-23T11:49:24;6.30;;;5.15;;
82711;SDS011;72433;41.992;21.438;2024-03-23T11:51:52;10.35;;;6.00;;
82711;SDS011;72433;41.992;21.438;2024-03-23T11:54:26;7.00;;;5.45;;
82711;SDS011;72433;41.992;21.438;2024-03-23T11:56:56;12.75;;;5.07;;
82711;SDS011;72433;41.992;21.438;2024-03-23T11:59:41;8.30;;;4.90;;
82711;SDS011;72433;41.992;21.438;2024-03-23T12:02:07;11.57;;;5.68;;
82711;SDS011;72433;41.992;21.438;2024-03-23T12:04:35;7.90;;;4.90;;
82711;SDS011;72433;41.992;21.438;2024-03-23T12:07:16;6.68;;;3.65;;
82711;SDS011;72433;41.992;21.438;2024-03-23T12:09:46;5.68;;;3.70;;
82711;SDS011;72433;41.992;21.438;2024-03-23T12:12:17;7.00;;;4.10;;
82711;SDS011;72433;41.992;21.438;2024-03-23T12:15:02;15.45;;;5.28;;
82711;SDS011;72433;41.992;21.438;2024-03-23T12:17:30;15.40;;;5.57;;
82711;SDS011;72433;41.992;21.438;2024-03-23T12:19:56;11.10;;;4.82;;
82711;SDS011;72433;41.992;21.438;2024-03-23T12:22:27;6.63;;;3.90;;
82711;SDS011;72433;41.992;21.438;2024-03-23T12:24:54;9.27;;;4.35;;
82711;SDS011;72433;41.992;21.438;2024-03-23T12:27:20;6.50;;;4.05;;
82711;SDS011;72433;41.992;21.438;2024-03-23T12:29:47;6.95;;;4.05;;
82711;SDS011;72433;41.992;21.438;2024-03-23T12:32:13;6.82;;;3.70;;
82711;SDS011;72433;41.992;21.438;2024-03-23T12:34:39;6.43;;;3.90;;
82711;SDS011;72433;41.992;21.438;2024-03-23T12:37:06;7.63;;;4.00;;
82711;SDS011;72433;41.992;21.438;2024-03-23T12:39:32;8.73;;;3.78;;
82711;SDS011;72433;41.992;21.438;2024-03-23T12:42:00;4.63;;;3.63;;
82711;SDS011;72433;41.992;21.438;2024-03-23T12:44:27;17.20;;;5.15;;
82711;SDS011;72433;41.992;21.438;2024-03-23T12:46:56;6.50;;;3.97;;
82711;SDS011;72433;41.992;21.438;2024-03-23T12:49:23;10.52;;;4.85;;
82711;SDS011;72433;41.992;21.438;2024-03-23T12:51:55;6.72;;;3.88;;
82711;SDS011;72433;41.992;21.438;2024-03-23T12:54:24;11.20;;;4.10;;
82711;SDS011;72433;41.992;21.438;2024-03-23T12:56:50;8.50;;;4.93;;
82711;SDS011;72433;41.992;21.438;2024-03-23T12:59:16;7.30;;;4.13;;
82711;SDS011;72433;41.992;21.438;2024-03-23T13:01:43;5.95;;;4.20;;
82711;SDS011;72433;41.992;21.438;2024-03-23T13:04:09;19.63;;;5.50;;
82711;SDS011;72433;41.992;21.438;2024-03-23T13:06:36;5.78;;;3.72;;
82711;SDS011;72433;41.992;21.438;2024-03-23T13:09:02;6.07;;;4.20;;
82711;SDS011;72433;41.992;21.438;2024-03-23T13:11:28;7.20;;;3.97;;
82711;SDS011;72433;41.992;21.438;2024-03-23T13:13:54;6.40;;;3.70;;
82711;SDS011;72433;41.992;21.438;2024-03-23T13:16:20;6.90;;;3.67;;
82711;SDS011;72433;41.992;21.438;2024-03-23T13:18:47;7.35;;;3.92;;
82711;SDS011;72433;41.992;21.438;2024-03-23T13:21:13;6.80;;;3.55;;
82711;SDS011;72433;41.992;21.438;2024-03-23T13:23:39;7.22;;;3.92;;
82711;SDS011;72433;41.992;21.438;2024-03-23T13:26:07;7.13;;;3.65;;
82711;SDS011;72433;41.992;21.438;2024-03-23T13:28:33;7.50;;;3.80;;
82711;SDS011;72433;41.992;21.438;2024-03-23T13:31:01;7.03;;;4.15;;
82711;SDS011;72433;41.992;21.438;2024-03-23T13:33:30;8.70;;;3.67;;
82711;SDS011;72433;41.992;21.438;2024-03-23T13:35:58;5.93;;;4.10;;
82711;SDS011;72433;41.992;21.438;2024-03-23T13:38:25;5.93;;;3.67;;
82711;SDS011;72433;41.992;21.438;2024-03-23T13:40:54;5.90;;;3.25;;
82711;SDS011;72433;41.992;21.438;2024-03-23T13:43:24;7.13;;;3.78;;
82711;SDS011;72433;41.992;21.438;2024-03-23T13:45:53;6.05;;;3.58;;
82711;SDS011;72433;41.992;21.438;2024-03-23T13:48:20;7.07;;;3.47;;
82711;SDS011;72433;41.992;21.438;2024-03-23T13:50:47;6.07;;;3.80;;
82711;SDS011;72433;41.992;21.438;2024-03-23T13:53:13;5.05;;;3.53;;
82711;SDS011;72433;41.992;21.438;2024-03-23T13:55:46;10.93;;;3.80;;
82711;SDS011;72433;41.992;21.438;2024-03-23T13:58:13;8.38;;;3.58;;
82711;SDS011;72433;41.992;21.438;2024-03-23T14:00:39;7.43;;;3.67;;
82711;SDS011;72433;41.992;21.438;2024-03-23T14:03:07;6.50;;;3.47;;
82711;SDS011;72433;41.992;21.438;2024-03-23T14:05:33;5.53;;;3.45;;
82711;SDS011;72433;41.992;21.438;2024-03-23T14:07:59;4.38;;;3.45;;
82711;SDS011;72433;41.992;21.438;2024-03-23T14:10:26;5.22;;;3.90;;
82711;SDS011;72433;41.992;21.438;2024-03-23T14:12:52;5.53;;;3.50;;
82711;SDS011;72433;41.992;21.438;2024-03-23T14:15:19;5.03;;;3.65;;
82711;SDS011;72433;41.992;21.438;2024-03-23T14:17:45;6.68;;;3.63;;
82711;SDS011;72433;41.992;21.438;2024-03-23T14:20:11;4.28;;;3.53;;
82711;SDS011;72433;41.992;21.438;2024-03-23T14:22:38;5.97;;;3.55;;
82711;SDS011;72433;41.992;21.438;2024-03-23T14:25:06;5.38;;;3.10;;
82711;SDS011;72433;41.992;21.438;2024-03-23T14:27:32;4.75;;;3.40;;
82711;SDS011;72433;41.992;21.438;2024-03-23T14:30:05;4.90;;;3.35;;
82711;SDS011;72433;41.992;21.438;2024-03-23T14:32:31;6.88;;;3.60;;
82711;SDS011;72433;41.992;21.438;2024-03-23T14:35:00;6.72;;;4.00;;
82711;SDS011;72433;41.992;21.438;2024-03-23T14:37:26;4.88;;;3.60;;
82711;SDS011;72433;41.992;21.438;2024-03-23T14:39:52;5.60;;;3.47;;
82711;SDS011;72433;41.992;21.438;2024-03-23T14:42:19;6.20;;;3.70;;
82711;SDS011;72433;41.992;21.438;2024-03-23T14:44:45;6.30;;;3.55;;
82711;SDS011;72433;41.992;21.438;2024-03-23T14:47:11;5.35;;;3.83;;
82711;SDS011;72433;41.992;21.438;2024-03-23T14:49:37;5.22;;;3.58;;
82711;SDS011;72433;41.992;21.438;2024-03-23T14:52:03;5.55;;;3.58;;
82711;SDS011;72433;41.992;21.438;2024-03-23T14:54:30;7.00;;;3.42;;
82711;SDS011;72433;41.992;21.438;2024-03-23T14:56:56;6.47;;;4.13;;
82711;SDS011;72433;41.992;21.438;2024-03-23T14:59:26;11.65;;;3.53;;
82711;SDS011;72433;41.992;21.438;2024-03-23T15:01:52;7.20;;;3.67;;
82711;SDS011;72433;41.992;21.438;2024-03-23T15:04:18;6.28;;;3.42;;
82711;SDS011;72433;41.992;21.438;2024-03-23T15:06:44;6.10;;;3.80;;
82711;SDS011;72433;41.992;21.438;2024-03-23T15:09:14;6.97;;;3.70;;
82711;SDS011;72433;41.992;21.438;2024-03-23T15:11:40;7.95;;;3.63;;
82711;SDS011;72433;41.992;21.438;2024-03-23T15:14:06;5.97;;;3.78;;
82711;SDS011;72433;41.992;21.438;2024-03-23T15:16:33;4.63;;;3.45;;
82711;SDS011;72433;41.992;21.438;2024-03-23T15:18:59;6.22;;;4.72;;